createdAt,value
2022-07-25T00:00:55.964Z,5.00
2022-07-25T00:03:24.189Z,5.00
2022-07-25T00:05:52.346Z,4.50
2022-07-25T00:08:20.491Z,7.20
2022-07-25T00:10:50.026Z,5.00
2022-07-25T00:13:18.169Z,5.00
2022-07-25T00:15:46.358Z,4.00
2022-07-25T00:18:14.523Z,6.00
2022-07-25T00:20:42.704Z,5.40
2022-07-25T00:23:10.862Z,6.00
2022-07-25T00:25:39.038Z,5.00
2022-07-25T00:28:08.549Z,6.00
2022-07-25T00:30:36.718Z,7.00
2022-07-25T00:33:04.975Z,5.20
2022-07-25T00:35:33.150Z,6.60
2022-07-25T00:38:01.542Z,5.60
2022-07-25T00:40:29.721Z,6.00
2022-07-25T00:42:57.871Z,5.60
2022-07-25T00:45:27.581Z,6.60
2022-07-25T00:47:55.734Z,5.80
2022-07-25T00:50:24.406Z,6.00
2022-07-25T00:52:52.558Z,5.50
2022-07-25T00:55:20.896Z,4.00
2022-07-25T00:57:49.036Z,5.00
2022-07-25T01:00:18.288Z,7.00
2022-07-25T01:02:48.280Z,4.80
2022-07-25T01:05:19.101Z,6.20
2022-07-25T01:07:47.257Z,5.00
2022-07-25T01:10:15.413Z,6.00
2022-07-25T01:12:49.140Z,6.00
2022-07-25T01:15:18.101Z,6.00
2022-07-25T01:17:47.750Z,4.20
2022-07-25T01:20:17.814Z,5.00
2022-07-25T01:22:46.736Z,5.00
2022-07-25T01:25:15.373Z,6.00
2022-07-25T01:27:43.571Z,5.80
2022-07-25T01:30:13.177Z,5.80
2022-07-25T01:32:41.406Z,5.50
2022-07-25T01:35:10.441Z,5.00
2022-07-25T01:37:39.919Z,5.40
2022-07-25T01:40:13.893Z,6.00
2022-07-25T01:42:42.140Z,6.00
2022-07-25T01:45:11.051Z,4.00
2022-07-25T01:47:39.148Z,6.00
2022-07-25T01:50:08.315Z,6.25
2022-07-25T01:52:37.334Z,6.00
2022-07-25T01:55:07.967Z,7.00
2022-07-25T01:57:36.678Z,5.25
2022-07-25T02:00:05.619Z,5.00
2022-07-25T02:02:39.870Z,6.00
2022-07-25T02:05:08.546Z,4.25
2022-07-25T02:07:36.746Z,5.00
2022-07-25T02:10:07.271Z,5.00
2022-07-25T02:12:35.366Z,5.00
2022-07-25T02:15:03.477Z,5.60
2022-07-25T02:17:31.561Z,5.00
2022-07-25T02:19:59.646Z,6.00
2022-07-25T02:22:27.752Z,4.80
2022-07-25T02:24:55.847Z,6.00
2022-07-25T02:27:25.316Z,4.50
2022-07-25T02:29:53.409Z,4.00
2022-07-25T02:32:21.504Z,4.60
2022-07-25T02:34:49.594Z,5.00
2022-07-25T02:37:17.716Z,6.00
2022-07-25T02:39:45.801Z,5.00
2022-07-25T02:42:13.912Z,5.00
2022-07-25T02:44:43.359Z,5.00
2022-07-25T02:47:11.483Z,4.50
2022-07-25T02:49:39.562Z,3.40
2022-07-25T02:52:07.739Z,5.00
2022-07-25T02:54:35.842Z,7.40
2022-07-25T02:57:04.057Z,7.00
2022-07-25T02:59:32.442Z,4.75
2022-07-25T03:02:02.152Z,4.00
2022-07-25T03:04:31.178Z,5.40
2022-07-25T03:06:59.338Z,5.80
2022-07-25T03:09:27.421Z,6.00
2022-07-25T03:11:55.545Z,5.00
2022-07-25T03:14:23.681Z,5.00
2022-07-25T03:16:51.929Z,4.00
2022-07-25T03:19:21.467Z,4.50
2022-07-25T03:21:49.587Z,4.00
2022-07-25T03:24:18.999Z,5.20
2022-07-25T03:26:47.121Z,5.00
2022-07-25T03:29:15.212Z,7.00
2022-07-25T03:31:43.386Z,6.00
2022-07-25T03:34:11.528Z,4.00
2022-07-25T03:36:41.029Z,6.00
2022-07-25T03:39:09.086Z,5.00
2022-07-25T03:41:37.205Z,5.50
2022-07-25T03:44:05.958Z,5.60
2022-07-25T03:46:34.286Z,6.80
2022-07-25T03:49:02.450Z,5.00
2022-07-25T03:51:30.608Z,6.80
2022-07-25T03:54:06.818Z,6.75
2022-07-25T03:56:43.557Z,5.00
2022-07-25T03:59:13.000Z,4.80
2022-07-25T04:01:41.244Z,5.00
2022-07-25T04:04:10.055Z,4.60
2022-07-25T04:06:38.346Z,6.00
2022-07-25T04:09:07.905Z,6.75
2022-07-25T04:11:36.094Z,5.00
2022-07-25T04:14:04.576Z,4.40
2022-07-25T04:16:33.077Z,4.00
2022-07-25T04:19:02.309Z,4.40
2022-07-25T04:21:30.407Z,5.00
2022-07-25T04:23:58.493Z,6.00
2022-07-25T04:26:27.938Z,6.40
2022-07-25T04:28:57.777Z,5.40
2022-07-25T04:31:26.539Z,6.00
2022-07-25T04:33:54.701Z,7.60
2022-07-25T04:36:22.793Z,4.80
2022-07-25T04:38:50.900Z,5.60
2022-07-25T04:41:18.995Z,4.20
2022-07-25T04:43:49.074Z,5.75
2022-07-25T04:46:20.000Z,6.00
2022-07-25T04:48:48.314Z,5.50
2022-07-25T04:51:16.592Z,5.00
2022-07-25T04:53:44.719Z,4.60
2022-07-25T04:56:12.808Z,6.00
2022-07-25T04:58:41.053Z,5.40
2022-07-25T05:01:10.607Z,5.00
2022-07-25T05:03:38.775Z,3.00
2022-07-25T05:06:07.337Z,5.80
2022-07-25T05:08:35.462Z,5.00
2022-07-25T05:11:03.550Z,5.00
2022-07-25T05:13:31.674Z,4.00
2022-07-25T05:15:59.779Z,5.40
2022-07-25T05:18:29.282Z,4.80
2022-07-25T05:20:57.365Z,5.50
2022-07-25T05:23:25.451Z,5.00
2022-07-25T05:25:53.572Z,3.50
2022-07-25T05:28:21.661Z,4.25
2022-07-25T05:30:49.775Z,3.00
2022-07-25T05:33:17.861Z,2.50
2022-07-25T05:35:47.340Z,4.60
2022-07-25T05:38:15.429Z,3.00
2022-07-25T05:40:43.565Z,5.00
2022-07-25T05:43:11.690Z,3.00
2022-07-25T05:45:39.800Z,5.00
2022-07-25T05:48:08.152Z,6.00
2022-07-25T05:50:37.961Z,5.60
2022-07-25T05:53:07.416Z,4.00
2022-07-25T05:55:35.528Z,6.00
2022-07-25T05:58:09.465Z,4.50
2022-07-25T06:00:37.706Z,5.00
2022-07-25T06:03:06.056Z,4.00
2022-07-25T06:05:34.282Z,4.00
2022-07-25T06:08:02.502Z,3.25
2022-07-25T06:10:31.977Z,5.40
2022-07-25T06:13:00.924Z,6.00
2022-07-25T06:15:29.685Z,5.60
2022-07-25T06:17:57.942Z,5.00
2022-07-25T06:20:27.529Z,5.00
2022-07-25T06:22:55.643Z,4.00
2022-07-25T06:25:23.949Z,5.50
2022-07-25T06:27:53.432Z,5.00
2022-07-25T06:30:21.542Z,5.20
2022-07-25T06:32:49.726Z,4.80
2022-07-25T06:35:18.066Z,5.40
2022-07-25T06:37:46.182Z,7.50
2022-07-25T06:40:14.558Z,6.00
2022-07-25T06:42:43.458Z,6.40
2022-07-25T06:45:13.918Z,6.60
2022-07-25T06:47:42.709Z,7.00
2022-07-25T06:50:12.090Z,5.20
2022-07-25T06:52:40.225Z,8.00
2022-07-25T06:55:09.396Z,8.00
2022-07-25T06:57:37.627Z,4.60
2022-07-25T07:00:09.225Z,7.40
2022-07-25T07:02:50.430Z,6.25
2022-07-25T07:05:18.616Z,6.00
2022-07-25T07:07:47.970Z,7.00
2022-07-25T07:10:16.564Z,7.00
2022-07-25T07:12:44.727Z,6.40
2022-07-25T07:15:12.953Z,6.50
2022-07-25T07:17:42.405Z,6.00
2022-07-25T07:20:11.140Z,6.00
2022-07-25T07:22:46.145Z,7.25
2022-07-25T07:25:15.611Z,8.00
2022-07-25T07:27:44.104Z,8.00
2022-07-25T07:30:12.574Z,6.75
2022-07-25T07:32:42.038Z,7.40
2022-07-25T07:35:11.300Z,8.00
2022-07-25T07:37:43.491Z,9.00
2022-07-25T07:40:17.079Z,7.60
2022-07-25T07:42:47.443Z,8.20
2022-07-25T07:45:16.324Z,9.00
2022-07-25T07:47:48.073Z,7.25
2022-07-25T07:50:16.692Z,9.00
2022-07-25T07:52:44.865Z,9.25
2022-07-25T07:55:30.650Z,11.00
2022-07-25T07:57:59.609Z,9.50
2022-07-25T08:00:29.171Z,10.00
2022-07-25T08:02:59.005Z,9.50
2022-07-25T08:05:28.308Z,11.75
2022-07-25T08:07:56.442Z,10.00
2022-07-25T08:10:25.477Z,11.00
2022-07-25T08:12:53.735Z,9.25
2022-07-25T08:15:22.521Z,10.00
2022-07-25T08:17:51.538Z,11.00
2022-07-25T08:20:37.360Z,10.50
2022-07-25T08:23:06.617Z,11.00
2022-07-25T08:25:34.737Z,11.75
2022-07-25T08:28:02.830Z,10.50
2022-07-25T08:30:30.994Z,11.50
2022-07-25T08:33:01.297Z,8.60
2022-07-25T08:35:30.964Z,9.00
2022-07-25T08:37:59.566Z,9.50
2022-07-25T08:40:29.693Z,11.00
2022-07-25T08:42:58.518Z,9.50
2022-07-25T08:45:26.972Z,12.75
2022-07-25T08:47:55.646Z,10.00
2022-07-25T08:50:24.465Z,12.00
2022-07-25T08:53:09.985Z,16.20
2022-07-25T08:55:43.648Z,10.00
2022-07-25T08:58:12.569Z,11.60
2022-07-25T09:00:41.317Z,10.00
2022-07-25T09:03:09.518Z,13.40
2022-07-25T09:05:37.993Z,12.40
2022-07-25T09:08:11.265Z,11.00
2022-07-25T09:10:39.789Z,10.75
2022-07-25T09:13:11.029Z,11.00
2022-07-25T09:15:40.392Z,12.40
2022-07-25T09:18:10.950Z,11.00
2022-07-25T09:20:40.859Z,10.60
2022-07-25T09:23:10.708Z,9.25
2022-07-25T09:25:40.154Z,10.80
2022-07-25T09:28:15.256Z,12.00
2022-07-25T09:30:54.989Z,12.00
2022-07-25T09:33:23.369Z,11.00
2022-07-25T09:35:51.539Z,10.00
2022-07-25T09:38:21.385Z,13.00
2022-07-25T09:40:56.986Z,12.25
2022-07-25T09:43:25.178Z,10.60
2022-07-25T09:45:53.448Z,12.60
2022-07-25T09:48:22.212Z,10.80
2022-07-25T09:50:50.745Z,17.40
2022-07-25T09:53:20.295Z,11.40
2022-07-25T09:55:48.397Z,15.00
2022-07-25T09:58:16.491Z,11.00
2022-07-25T10:00:44.801Z,11.40
2022-07-25T10:03:18.697Z,11.75
2022-07-25T10:05:56.734Z,12.40
2022-07-25T10:08:26.212Z,13.00
2022-07-25T10:10:54.301Z,11.00
2022-07-25T10:13:30.671Z,14.00
2022-07-25T10:15:58.757Z,10.20
2022-07-25T10:18:27.766Z,14.00
2022-07-25T10:20:57.012Z,11.60
2022-07-25T10:23:27.086Z,12.00
2022-07-25T10:26:02.700Z,11.60
2022-07-25T10:28:41.689Z,12.00
2022-07-25T10:31:22.032Z,13.60
2022-07-25T10:33:55.237Z,13.00
2022-07-25T10:36:23.575Z,15.00
2022-07-25T10:38:54.263Z,18.00
2022-07-25T10:41:26.023Z,12.20
2022-07-25T10:43:56.820Z,14.00
2022-07-25T10:46:28.098Z,14.00
2022-07-25T10:49:00.239Z,13.50
2022-07-25T10:51:29.004Z,14.00
2022-07-25T10:53:58.641Z,13.60
2022-07-25T10:56:27.707Z,15.00
2022-07-25T10:58:58.066Z,13.00
2022-07-25T11:01:26.987Z,13.20
2022-07-25T11:03:56.253Z,15.20
2022-07-25T11:06:32.046Z,16.00
2022-07-25T11:09:01.576Z,13.00
2022-07-25T11:11:37.339Z,13.00
2022-07-25T11:14:06.037Z,14.50
2022-07-25T11:16:34.240Z,20.00
2022-07-25T11:19:02.407Z,24.75
2022-07-25T11:21:30.506Z,31.00
2022-07-25T11:23:58.622Z,30.00
2022-07-25T11:26:28.067Z,22.50
2022-07-25T11:28:56.185Z,14.60
2022-07-25T11:31:24.671Z,16.00
2022-07-25T11:33:52.845Z,18.60
2022-07-25T11:36:20.941Z,15.25
2022-07-25T11:38:49.529Z,17.80
2022-07-25T11:41:17.670Z,18.00
2022-07-25T11:43:50.980Z,14.50
2022-07-25T11:46:19.430Z,14.00
2022-07-25T11:48:48.174Z,12.80
2022-07-25T11:51:19.159Z,14.40
2022-07-25T11:53:48.171Z,17.40
2022-07-25T11:56:40.703Z,15.25
2022-07-25T11:59:07.817Z,16.00
2022-07-25T12:01:37.345Z,16.60
2022-07-25T12:04:12.541Z,15.60
2022-07-25T12:06:40.980Z,17.00
2022-07-25T12:09:18.271Z,14.80
2022-07-25T12:11:47.641Z,15.80
2022-07-25T12:14:17.176Z,14.00
2022-07-25T12:16:45.380Z,15.25
2022-07-25T12:19:20.036Z,13.40
2022-07-25T12:21:48.159Z,16.00
2022-07-25T12:24:16.314Z,14.40
2022-07-25T12:26:44.414Z,17.00
2022-07-25T12:29:12.528Z,17.00
2022-07-25T12:31:41.984Z,15.00
2022-07-25T12:34:10.100Z,16.00
2022-07-25T12:36:43.969Z,15.00
2022-07-25T12:39:12.409Z,13.60
2022-07-25T12:41:42.840Z,11.80
2022-07-25T12:44:11.312Z,14.60
2022-07-25T12:46:44.717Z,14.50
2022-07-25T12:49:15.602Z,11.40
2022-07-25T12:51:43.763Z,16.40
2022-07-25T12:54:11.908Z,14.50
2022-07-25T12:56:39.993Z,13.67
2022-07-25T12:59:08.464Z,16.40
2022-07-25T13:01:36.866Z,16.00
2022-07-25T13:04:07.348Z,17.50
2022-07-25T13:06:38.576Z,14.00
2022-07-25T13:09:07.720Z,14.00
2022-07-25T13:11:36.158Z,17.00
2022-07-25T13:14:04.435Z,14.40
2022-07-25T13:16:34.052Z,14.60
2022-07-25T13:19:02.208Z,13.00
2022-07-25T13:21:32.123Z,16.40
2022-07-25T13:24:00.280Z,14.80
2022-07-25T13:26:28.369Z,15.00
2022-07-25T13:29:04.766Z,14.00
2022-07-25T13:31:34.340Z,17.40
2022-07-25T13:34:02.636Z,15.50
2022-07-25T13:36:33.061Z,14.00
2022-07-25T13:39:01.187Z,14.50
2022-07-25T13:41:29.326Z,14.20
2022-07-25T13:43:57.890Z,15.00
2022-07-25T13:46:26.121Z,15.50
2022-07-25T13:48:54.335Z,14.20
2022-07-25T13:51:22.531Z,15.40
2022-07-25T13:53:51.969Z,15.60
2022-07-25T13:56:20.091Z,14.40
2022-07-25T13:58:48.441Z,15.80
2022-07-25T14:01:16.695Z,15.50
2022-07-25T14:03:44.783Z,14.00
2022-07-25T14:06:12.892Z,16.60
2022-07-25T14:08:41.324Z,15.60
2022-07-25T14:11:10.809Z,14.00
2022-07-25T14:13:38.912Z,15.80
2022-07-25T14:16:07.267Z,17.00
2022-07-25T14:18:35.366Z,15.60
2022-07-25T14:21:03.506Z,13.60
2022-07-25T14:23:31.601Z,15.00
2022-07-25T14:25:59.825Z,17.60
2022-07-25T14:28:29.271Z,17.50
2022-07-25T14:30:57.391Z,16.00
2022-07-25T14:33:25.636Z,16.50
2022-07-25T14:35:53.910Z,17.00
2022-07-25T14:38:22.274Z,18.00
2022-07-25T14:40:50.522Z,16.40
2022-07-25T14:43:18.836Z,15.40
2022-07-25T14:45:48.282Z,16.00
2022-07-25T14:48:16.399Z,14.67
2022-07-25T14:50:44.476Z,15.50
2022-07-25T14:53:13.525Z,16.00
2022-07-25T14:55:41.644Z,16.40
2022-07-25T14:58:09.774Z,17.20
2022-07-25T15:00:41.795Z,14.00
2022-07-25T15:03:11.329Z,15.75
2022-07-25T15:05:39.538Z,17.00
2022-07-25T15:08:07.765Z,15.00
2022-07-25T15:10:35.905Z,14.50
2022-07-25T15:13:29.570Z,18.00
2022-07-25T15:15:52.291Z,22.40
2022-07-25T15:18:21.825Z,19.40
2022-07-25T15:20:51.951Z,15.50
2022-07-25T15:23:21.221Z,14.50
2022-07-25T15:26:04.913Z,14.40
2022-07-25T15:28:33.878Z,19.00
2022-07-25T15:31:02.254Z,14.40
2022-07-25T15:33:31.802Z,14.80
2022-07-25T15:35:59.953Z,16.00
2022-07-25T15:38:29.081Z,15.00
2022-07-25T15:40:57.268Z,15.50
2022-07-25T15:43:25.463Z,16.25
2022-07-25T15:45:53.616Z,15.40
2022-07-25T15:48:21.874Z,15.00
2022-07-25T15:50:52.494Z,15.40
2022-07-25T15:53:20.747Z,13.40
2022-07-25T15:55:48.881Z,15.00
2022-07-25T15:58:16.992Z,16.50
2022-07-25T16:00:45.154Z,17.00
2022-07-25T16:03:13.873Z,14.40
2022-07-25T16:05:42.157Z,15.20
2022-07-25T16:08:11.605Z,16.00
2022-07-25T16:10:39.879Z,16.40
2022-07-25T16:13:07.963Z,15.00
2022-07-25T16:15:36.138Z,14.50
2022-07-25T16:18:04.245Z,15.00
2022-07-25T16:20:32.476Z,15.00
2022-07-25T16:23:00.607Z,14.00
2022-07-25T16:25:30.383Z,16.25
2022-07-25T16:27:58.619Z,16.40
2022-07-25T16:30:26.991Z,21.00
2022-07-25T16:32:55.080Z,15.75
2022-07-25T16:35:23.534Z,18.00
2022-07-25T16:37:51.647Z,16.25
2022-07-25T16:40:19.757Z,16.00
2022-07-25T16:42:51.982Z,16.00
2022-07-25T16:45:20.358Z,16.80
2022-07-25T16:47:48.447Z,16.40
2022-07-25T16:50:17.118Z,19.00
2022-07-25T16:52:45.211Z,15.00
2022-07-25T16:55:13.405Z,16.00
2022-07-25T16:57:41.552Z,17.80
2022-07-25T17:00:12.163Z,18.00
2022-07-25T17:02:40.441Z,16.80
2022-07-25T17:05:09.776Z,16.20
2022-07-25T17:07:38.932Z,17.00
2022-07-25T17:10:08.517Z,15.00
2022-07-25T17:12:36.621Z,16.50
2022-07-25T17:15:05.165Z,18.00
2022-07-25T17:17:34.991Z,18.40
2022-07-25T17:20:03.140Z,17.40
2022-07-25T17:22:31.280Z,17.00
2022-07-25T17:24:59.394Z,17.40
2022-07-25T17:27:27.481Z,15.60
2022-07-25T17:29:55.597Z,16.00
2022-07-25T17:32:29.268Z,18.00
2022-07-25T17:34:59.811Z,16.80
2022-07-25T17:37:28.538Z,19.40
2022-07-25T17:39:56.678Z,13.60
2022-07-25T17:42:24.765Z,15.00
2022-07-25T17:44:53.147Z,18.00
2022-07-25T17:47:21.236Z,15.50
2022-07-25T17:49:51.243Z,15.60
2022-07-25T17:52:20.709Z,15.50
2022-07-25T17:54:48.845Z,17.25
2022-07-25T17:57:16.940Z,16.60
2022-07-25T17:59:45.053Z,15.50
2022-07-25T18:02:13.194Z,15.40
2022-07-25T18:04:41.428Z,15.40
2022-07-25T18:07:09.511Z,18.00
2022-07-25T18:09:39.024Z,16.00
2022-07-25T18:12:07.757Z,17.75
2022-07-25T18:14:35.882Z,16.40
2022-07-25T18:17:06.219Z,15.00
2022-07-25T18:19:34.353Z,16.00
2022-07-25T18:22:02.444Z,19.00
2022-07-25T18:24:30.947Z,15.00
2022-07-25T18:27:00.459Z,14.00
2022-07-25T18:29:28.578Z,15.00
2022-07-25T18:31:56.665Z,15.50
2022-07-25T18:34:24.753Z,16.00
2022-07-25T18:36:52.845Z,16.00
2022-07-25T18:39:20.954Z,18.00
2022-07-25T18:41:49.031Z,14.50
2022-07-25T18:44:19.291Z,14.00
2022-07-25T18:46:47.773Z,16.00
2022-07-25T18:49:16.108Z,16.00
2022-07-25T18:51:44.256Z,16.40
2022-07-25T18:54:12.376Z,15.80
2022-07-25T18:56:40.481Z,20.20
2022-07-25T18:59:09.288Z,17.00
2022-07-25T19:01:39.233Z,16.75
2022-07-25T19:04:07.729Z,17.25
2022-07-25T19:06:35.976Z,16.00
2022-07-25T19:09:04.105Z,18.60
2022-07-25T19:11:33.364Z,20.40
2022-07-25T19:14:01.473Z,16.20
2022-07-25T19:16:29.562Z,15.00
2022-07-25T19:19:00.393Z,12.60
2022-07-25T19:21:28.484Z,13.75
2022-07-25T19:23:56.564Z,12.60
2022-07-25T19:26:24.697Z,14.00
2022-07-25T19:28:52.836Z,11.75
2022-07-25T19:31:20.992Z,13.20
2022-07-25T19:33:49.410Z,12.75
2022-07-25T19:36:18.861Z,13.00
2022-07-25T19:38:46.983Z,14.00
2022-07-25T19:41:15.169Z,15.80
2022-07-25T19:43:43.283Z,11.25
2022-07-25T19:46:11.453Z,11.00
2022-07-25T19:48:39.750Z,12.80
2022-07-25T19:51:08.089Z,12.75
2022-07-25T19:53:37.644Z,13.00
2022-07-25T19:56:06.747Z,14.00
2022-07-25T19:58:38.547Z,14.00
2022-07-25T20:01:06.959Z,14.00
2022-07-25T20:03:35.693Z,12.80
2022-07-25T20:06:08.061Z,12.60
2022-07-25T20:08:39.524Z,14.00
2022-07-25T20:11:08.004Z,13.50
2022-07-25T20:13:36.231Z,13.60
2022-07-25T20:16:04.887Z,13.00
2022-07-25T20:18:33.009Z,15.00
2022-07-25T20:21:01.126Z,12.25
2022-07-25T20:23:30.240Z,16.75
2022-07-25T20:26:00.672Z,14.00
2022-07-25T20:28:28.934Z,16.00
2022-07-25T20:30:57.533Z,16.00
2022-07-25T20:33:27.243Z,14.60
2022-07-25T20:35:55.693Z,12.00
2022-07-25T20:38:25.400Z,15.00
2022-07-25T20:40:54.818Z,11.50
2022-07-25T20:43:24.772Z,15.20
2022-07-25T20:45:52.995Z,14.80
2022-07-25T20:48:21.160Z,12.00
2022-07-25T20:50:49.814Z,13.00
2022-07-25T20:53:17.928Z,13.00
2022-07-25T20:55:46.060Z,18.00
2022-07-25T20:58:14.150Z,14.50
2022-07-25T21:00:43.995Z,16.00
2022-07-25T21:03:12.128Z,16.00
2022-07-25T21:05:42.086Z,18.00
2022-07-25T21:08:11.065Z,15.60
2022-07-25T21:10:39.359Z,13.40
2022-07-25T21:13:07.469Z,15.00
2022-07-25T21:15:35.840Z,15.80
2022-07-25T21:18:05.638Z,13.00
2022-07-25T21:20:33.767Z,19.00
2022-07-25T21:23:01.877Z,15.00
2022-07-25T21:25:29.993Z,15.00
2022-07-25T21:27:58.086Z,13.60
2022-07-25T21:30:26.206Z,17.60
2022-07-25T21:32:54.348Z,17.00
2022-07-25T21:35:23.997Z,15.80
2022-07-25T21:37:52.420Z,18.50
2022-07-25T21:40:20.554Z,17.25
2022-07-25T21:42:48.687Z,15.50
2022-07-25T21:45:16.800Z,17.00
2022-07-25T21:47:44.884Z,19.00
2022-07-25T21:50:30.423Z,20.00
2022-07-25T21:53:00.979Z,14.00
2022-07-25T21:55:29.096Z,16.00
2022-07-25T21:57:57.182Z,13.00
2022-07-25T22:00:25.335Z,15.00
2022-07-25T22:02:53.439Z,17.25
2022-07-25T22:05:21.870Z,16.00
2022-07-25T22:07:50.013Z,13.60
2022-07-25T22:10:20.342Z,12.80
2022-07-25T22:12:48.420Z,13.25
2022-07-25T22:15:16.584Z,13.50
2022-07-25T22:17:48.458Z,14.50
2022-07-25T22:20:18.274Z,13.50
2022-07-25T22:22:46.808Z,15.00
2022-07-25T22:25:14.916Z,17.00
2022-07-25T22:27:44.509Z,16.60
2022-07-25T22:30:18.260Z,14.25
2022-07-25T22:32:47.810Z,17.50
2022-07-25T22:35:16.005Z,17.40
2022-07-25T22:37:44.361Z,16.00
2022-07-25T22:40:13.292Z,15.50
2022-07-25T22:42:41.407Z,14.40
2022-07-25T22:45:11.692Z,16.00
2022-07-25T22:47:39.847Z,15.50
2022-07-25T22:50:09.688Z,16.25
2022-07-25T22:52:37.775Z,13.20
2022-07-25T22:55:06.564Z,17.00
2022-07-25T22:57:37.326Z,17.60
2022-07-25T23:00:07.001Z,19.00
2022-07-25T23:02:36.499Z,17.25
2022-07-25T23:05:05.085Z,17.00
2022-07-25T23:07:33.216Z,19.00
2022-07-25T23:10:01.351Z,14.00
2022-07-25T23:12:29.445Z,15.80
2022-07-25T23:14:57.560Z,14.75
2022-07-25T23:17:25.650Z,17.80
2022-07-25T23:19:55.943Z,15.40
2022-07-25T23:22:24.992Z,15.00
2022-07-25T23:24:53.414Z,17.00
2022-07-25T23:27:21.498Z,17.00
2022-07-25T23:29:49.620Z,21.00
2022-07-25T23:32:17.821Z,15.00
2022-07-25T23:34:45.987Z,16.75
2022-07-25T23:37:15.430Z,18.50
2022-07-25T23:39:43.628Z,13.50
2022-07-25T23:42:11.714Z,18.00
2022-07-25T23:44:39.828Z,15.80
2022-07-25T23:47:08.091Z,16.00
2022-07-25T23:49:38.429Z,19.00
2022-07-25T23:52:06.739Z,15.40
2022-07-25T23:54:38.273Z,15.20
2022-07-25T23:57:07.210Z,17.25
2022-07-25T23:59:35.844Z,13.50
